Time,TemperatureF,DewpointF,PressureIn,WindDirection,WindDirectionDegrees,WindSpeedMPH,WindSpeedGustMPH,Humidity,HourlyPrecipIn,Conditions,Clouds,dailyrainin,SoftwareType,DateUTC
2013-05-09 00:31:00,58.9,58.0,30.00,East,94,0.0,-999.0,96,-99.99,,,0.00,weatherlink.com 1.10,2013-05-09 04:31:00,
2013-05-09 00:42:00,58.2,57.0,30.00,East,94,0.0,-999.0,96,-99.99,,,0.00,weatherlink.com 1.10,2013-05-09 04:42:00,
2013-05-09 00:57:00,57.9,57.0,30.00,East,94,0.0,-999.0,96,-99.99,,,0.00,weatherlink.com 1.10,2013-05-09 04:57:00,
2013-05-09 01:31:00,57.7,57.0,30.00,East,94,0.0,-999.0,96,-99.99,,,0.00,weatherlink.com 1.10,2013-05-09 05:31:00,
2013-05-09 01:42:00,56.9,56.0,29.99,East,94,0.0,-999.0,96,-99.99,,,0.01,weatherlink.com 1.10,2013-05-09 05:42:00,
2013-05-09 01:57:00,56.4,55.0,29.99,East,94,0.0,-999.0,96,-99.99,,,0.01,weatherlink.com 1.10,2013-05-09 05:57:00,
2013-05-09 02:30:00,56.3,55.0,29.99,East,94,0.0,-999.0,96,-99.99,,,0.01,weatherlink.com 1.10,2013-05-09 06:30:00,
2013-05-09 02:42:00,56.2,55.0,29.99,East,94,0.0,-999.0,97,-99.99,,,0.01,weatherlink.com 1.10,2013-05-09 06:42:00,
2013-05-09 02:57:00,56.2,55.0,29.98,East,94,0.0,-999.0,97,-99.99,,,0.01,weatherlink.com 1.10,2013-05-09 06:57:00,
2013-05-09 03:30:00,56.3,56.0,29.98,East,94,0.0,-999.0,97,-99.99,,,0.01,weatherlink.com 1.10,2013-05-09 07:30:00,
2013-05-09 03:41:00,56.7,56.0,29.99,East,94,0.0,-999.0,98,-99.99,,,0.01,weatherlink.com 1.10,2013-05-09 07:41:00,
2013-05-09 03:56:00,56.8,56.0,29.99,East,94,0.0,-999.0,98,-99.99,,,0.01,weatherlink.com 1.10,2013-05-09 07:56:00,
2013-05-09 04:30:00,57.0,57.0,29.99,East,94,0.0,-999.0,98,-99.99,,,0.01,weatherlink.com 1.10,2013-05-09 08:30:00,
2013-05-09 04:41:00,57.3,57.0,29.99,East,94,0.0,-999.0,98,-99.99,,,0.01,weatherlink.com 1.10,2013-05-09 08:41:00,
2013-05-09 04:56:00,57.2,57.0,29.99,East,94,0.0,-999.0,98,-99.99,,,0.01,weatherlink.com 1.10,2013-05-09 08:56:00,
2013-05-09 05:30:00,57.2,57.0,29.99,East,94,0.0,-999.0,98,-99.99,,,0.01,weatherlink.com 1.10,2013-05-09 09:30:00,
2013-05-09 05:41:00,56.9,56.0,30.00,East,94,0.0,-999.0,98,-99.99,,,0.01,weatherlink.com 1.10,2013-05-09 09:41:00,
2013-05-09 05:56:00,56.5,56.0,30.00,East,94,0.0,-999.0,98,-99.99,,,0.01,weatherlink.com 1.10,2013-05-09 09:56:00,
2013-05-09 06:30:00,56.4,56.0,30.00,East,94,0.0,-999.0,98,-99.99,,,0.01,weatherlink.com 1.10,2013-05-09 10:30:00,
2013-05-09 06:41:00,55.8,55.0,30.02,East,94,0.0,-999.0,98,-99.99,,,0.01,weatherlink.com 1.10,2013-05-09 10:41:00,
2013-05-09 06:56:00,55.7,55.0,30.02,East,94,0.0,-999.0,98,-99.99,,,0.01,weatherlink.com 1.10,2013-05-09 10:56:00,
2013-05-09 07:30:00,55.7,55.0,30.03,East,94,0.0,-999.0,98,-99.99,,,0.01,weatherlink.com 1.10,2013-05-09 11:30:00,
2013-05-09 07:41:00,55.8,55.0,30.04,East,94,0.0,-999.0,98,-99.99,,,0.01,weatherlink.com 1.10,2013-05-09 11:41:00,
2013-05-09 07:56:00,56.0,56.0,30.05,East,94,0.0,-999.0,98,-99.99,,,0.01,weatherlink.com 1.10,2013-05-09 11:56:00,
2013-05-09 08:30:00,56.2,56.0,30.05,East,94,0.0,-999.0,98,-99.99,,,0.01,weatherlink.com 1.10,2013-05-09 12:30:00,
2013-05-09 08:41:00,56.9,56.0,30.06,East,94,0.0,-999.0,98,-99.99,,,0.01,weatherlink.com 1.10,2013-05-09 12:41:00,
2013-05-09 08:56:00,57.6,57.0,30.05,East,94,0.0,-999.0,98,-99.99,,,0.01,weatherlink.com 1.10,2013-05-09 12:56:00,
2013-05-09 09:30:00,57.9,57.0,30.05,East,94,0.0,-999.0,98,-99.99,,,0.01,weatherlink.com 1.10,2013-05-09 13:30:00,
2013-05-09 09:41:00,60.0,60.0,30.05,East,94,0.0,-999.0,99,-99.99,,,0.01,weatherlink.com 1.10,2013-05-09 13:41:00,
2013-05-09 09:56:00,61.0,61.0,30.05,East,94,0.0,-999.0,98,-99.99,,,0.01,weatherlink.com 1.10,2013-05-09 13:56:00,
2013-05-09 10:30:00,61.5,61.0,30.05,East,94,0.0,-999.0,98,-99.99,,,0.01,weatherlink.com 1.10,2013-05-09 14:30:00,
2013-05-09 10:41:00,63.4,61.0,30.06,East,94,2.0,-999.0,92,-99.99,,,0.01,weatherlink.com 1.10,2013-05-09 14:41:00,
2013-05-09 10:56:00,64.5,61.0,30.06,East,94,1.0,-999.0,87,-99.99,,,0.01,weatherlink.com 1.10,2013-05-09 14:56:00,
2013-05-09 11:30:00,65.4,61.0,30.06,East,94,0.0,-999.0,86,-99.99,,,0.01,weatherlink.com 1.10,2013-05-09 15:30:00,
2013-05-09 11:41:00,69.1,61.0,30.05,East,94,0.0,-999.0,76,-99.99,,,0.01,weatherlink.com 1.10,2013-05-09 15:41:00,
2013-05-09 11:56:00,69.9,60.0,30.05,East,94,0.0,-999.0,72,-99.99,,,0.01,weatherlink.com 1.10,2013-05-09 15:56:00,
2013-05-09 12:30:00,70.6,59.0,30.05,East,94,2.0,-999.0,66,-99.99,,,0.01,weatherlink.com 1.10,2013-05-09 16:30:00,
2013-05-09 12:41:00,73.3,58.0,30.04,ENE,63,0.0,-999.0,59,-99.99,,,0.01,weatherlink.com 1.10,2013-05-09 16:41:00,
2013-05-09 12:56:00,73.9,57.0,30.04,East,90,0.0,-999.0,56,-99.99,,,0.01,weatherlink.com 1.10,2013-05-09 16:56:00,
2013-05-09 13:31:00,74.1,59.0,30.04,East,93,0.0,-999.0,60,-99.99,,,0.01,weatherlink.com 1.10,2013-05-09 17:31:00,
2013-05-09 13:42:00,75.6,60.0,30.03,ENE,70,0.0,-999.0,59,-99.99,,,0.01,weatherlink.com 1.10,2013-05-09 17:42:00,
2013-05-09 13:57:00,76.7,61.0,30.03,East,84,0.0,-999.0,58,-99.99,,,0.01,weatherlink.com 1.10,2013-05-09 17:57:00,
2013-05-09 14:11:00,77.4,59.0,30.03,East,101,1.0,-999.0,54,-99.99,,,0.01,weatherlink.com 1.10,2013-05-09 18:11:00,
2013-05-09 14:26:00,77.3,60.0,30.03,East,90,0.0,-999.0,55,-99.99,,,0.01,weatherlink.com 1.10,2013-05-09 18:26:00,
2013-05-09 14:41:00,77.5,60.0,30.03,East,90,1.0,-999.0,55,-99.99,,,0.01,weatherlink.com 1.10,2013-05-09 18:41:00,
2013-05-09 14:56:00,77.5,61.0,30.02,East,90,0.0,-999.0,57,-99.99,,,0.01,weatherlink.com 1.10,2013-05-09 18:56:00,
2013-05-09 15:27:00,78.1,59.0,30.01,East,83,0.0,-999.0,52,-99.99,,,0.01,weatherlink.com 1.10,2013-05-09 19:27:00,
2013-05-09 15:42:00,77.6,60.0,30.01,East,83,0.0,-999.0,55,-99.99,,,0.01,weatherlink.com 1.10,2013-05-09 19:42:00,
2013-05-09 15:57:00,78.5,60.0,30.01,East,85,1.0,-999.0,53,-99.99,,,0.01,weatherlink.com 1.10,2013-05-09 19:57:00,
2013-05-09 16:12:00,79.1,61.0,30.01,East,90,1.0,-999.0,54,-99.99,,,0.01,weatherlink.com 1.10,2013-05-09 20:12:00,
2013-05-09 16:40:00,79.1,61.0,30.01,East,90,2.0,-999.0,54,-99.99,,,0.01,weatherlink.com 1.10,2013-05-09 20:40:00,
2013-05-09 16:57:00,78.5,59.0,30.01,East,90,0.0,-999.0,52,-99.99,,,0.01,weatherlink.com 1.10,2013-05-09 20:57:00,
2013-05-09 17:12:00,78.5,59.0,30.00,East,89,0.0,-999.0,52,-99.99,,,0.01,weatherlink.com 1.10,2013-05-09 21:12:00,
2013-05-09 17:39:00,78.4,59.0,30.00,East,89,0.0,-999.0,52,-99.99,,,0.01,weatherlink.com 1.10,2013-05-09 21:39:00,
2013-05-09 17:56:00,78.3,59.0,30.00,South,180,0.0,-999.0,52,-99.99,,,0.01,weatherlink.com 1.10,2013-05-09 21:56:00,
2013-05-09 18:11:00,77.7,59.0,30.00,South,180,0.0,-999.0,53,-99.99,,,0.01,weatherlink.com 1.10,2013-05-09 22:11:00,
2013-05-09 18:40:00,77.5,59.0,30.00,South,180,0.0,-999.0,54,-99.99,,,0.01,weatherlink.com 1.10,2013-05-09 22:40:00,
2013-05-09 18:57:00,75.4,60.0,30.00,South,180,0.0,-999.0,59,-99.99,,,0.01,weatherlink.com 1.10,2013-05-09 22:57:00,
2013-05-09 19:12:00,74.7,62.0,30.00,South,180,0.0,-999.0,64,-99.99,,,0.01,weatherlink.com 1.10,2013-05-09 23:12:00,
2013-05-09 19:40:00,73.3,61.0,30.00,South,180,0.0,-999.0,65,-99.99,,,0.01,weatherlink.com 1.10,2013-05-09 23:40:00,
2013-05-09 19:57:00,72.6,63.0,30.01,South,180,0.0,-999.0,71,-99.99,,,0.01,weatherlink.com 1.10,2013-05-09 23:57:00,
2013-05-09 20:12:00,71.9,63.0,30.02,South,180,0.0,-999.0,73,-99.99,,,0.01,weatherlink.com 1.10,2013-05-10 00:12:00,
2013-05-09 20:39:00,71.8,63.0,30.02,South,180,0.0,-999.0,73,-99.99,,,0.01,weatherlink.com 1.10,2013-05-10 00:39:00,
2013-05-09 20:56:00,69.7,61.0,30.03,South,180,0.0,-999.0,75,-99.99,,,0.01,weatherlink.com 1.10,2013-05-10 00:56:00,
2013-05-09 21:11:00,68.9,61.0,30.04,South,180,0.0,-999.0,76,-99.99,,,0.01,weatherlink.com 1.10,2013-05-10 01:11:00,
2013-05-09 21:39:00,68.8,61.0,30.04,South,180,0.0,-999.0,77,-99.99,,,0.01,weatherlink.com 1.10,2013-05-10 01:39:00,
2013-05-09 21:56:00,66.8,61.0,30.05,South,180,0.0,-999.0,81,-99.99,,,0.01,weatherlink.com 1.10,2013-05-10 01:56:00,
2013-05-09 22:11:00,66.3,61.0,30.05,South,180,0.0,-999.0,82,-99.99,,,0.01,weatherlink.com 1.10,2013-05-10 02:11:00,
2013-05-09 22:39:00,66.2,61.0,30.05,South,180,0.0,-999.0,83,-99.99,,,0.01,weatherlink.com 1.10,2013-05-10 02:39:00,
2013-05-09 22:56:00,64.4,60.0,30.05,South,180,0.0,-999.0,86,-99.99,,,0.01,weatherlink.com 1.10,2013-05-10 02:56:00,
2013-05-09 23:11:00,64.1,60.0,30.05,South,180,0.0,-999.0,87,-99.99,,,0.01,weatherlink.com 1.10,2013-05-10 03:11:00,
2013-05-09 23:39:00,64.0,60.0,30.05,South,180,0.0,-999.0,87,-99.99,,,0.01,weatherlink.com 1.10,2013-05-10 03:39:00,
2013-05-09 23:56:00,63.1,60.0,30.05,South,180,0.0,-999.0,89,-99.99,,,0.01,weatherlink.com 1.10,2013-05-10 03:56:00,